createdAt,value
2016-10-04T00:00:02.147Z,0
2016-10-04T00:01:02.129Z,0
2016-10-04T00:02:02.430Z,0
2016-10-04T00:03:02.153Z,0
2016-10-04T00:04:02.087Z,0
2016-10-04T00:05:02.129Z,0
2016-10-04T00:06:02.056Z,0
2016-10-04T00:07:02.056Z,0
2016-10-04T00:08:02.350Z,0
2016-10-04T00:09:02.016Z,0
2016-10-04T00:10:02.325Z,0
2016-10-04T00:11:01.994Z,0
2016-10-04T00:12:01.980Z,0
2016-10-04T00:13:02.282Z,0
2016-10-04T00:14:02.266Z,0
2016-10-04T00:15:01.938Z,0
2016-10-04T00:16:01.927Z,0
2016-10-04T00:17:01.915Z,0
2016-10-04T00:18:01.905Z,0
2016-10-04T00:19:02.195Z,0
2016-10-04T00:20:02.187Z,0
2016-10-04T00:21:01.914Z,0
2016-10-04T00:22:02.157Z,0
2016-10-04T00:23:02.199Z,0
2016-10-04T00:24:01.819Z,0
2016-10-04T00:25:01.810Z,0
2016-10-04T00:26:01.795Z,0
2016-10-04T00:27:01.781Z,0
2016-10-04T00:28:02.077Z,0
2016-10-04T00:29:01.750Z,0
2016-10-04T00:30:02.051Z,0
2016-10-04T00:31:01.730Z,0
2016-10-04T00:32:01.706Z,0
2016-10-04T00:33:01.706Z,0
2016-10-04T00:34:01.689Z,0
2016-10-04T00:35:01.976Z,0
2016-10-04T00:36:01.976Z,0
2016-10-04T00:37:01.642Z,0
2016-10-04T00:38:01.936Z,0
2016-10-04T00:39:01.618Z,0
2016-10-04T00:40:01.919Z,0
2016-10-04T00:41:01.588Z,0
2016-10-04T00:42:01.573Z,0
2016-10-04T00:43:01.871Z,0
2016-10-04T00:44:01.863Z,0
2016-10-04T00:45:01.541Z,0
2016-10-04T00:46:01.836Z,0
2016-10-04T00:47:01.507Z,0
2016-10-04T00:48:01.490Z,0
2016-10-04T00:49:01.479Z,0
2016-10-04T00:50:01.472Z,0
2016-10-04T00:51:01.457Z,0
2016-10-04T00:52:01.759Z,0
2016-10-04T00:53:01.426Z,0
2016-10-04T00:54:01.728Z,0
2016-10-04T00:55:01.404Z,0
2016-10-04T00:56:01.600Z,0
2016-10-04T00:57:01.375Z,0
2016-10-04T00:58:01.361Z,0
2016-10-04T00:59:01.999Z,0
2016-10-04T01:00:01.982Z,0
2016-10-04T01:01:01.328Z,0
2016-10-04T01:02:01.310Z,0
2016-10-04T01:03:01.294Z,0
2016-10-04T01:04:01.280Z,0
2016-10-04T01:05:01.261Z,0
2016-10-04T01:06:01.566Z,0
2016-10-04T01:07:01.236Z,0
2016-10-04T01:08:01.536Z,0
2016-10-04T01:09:01.247Z,0
2016-10-04T01:10:01.197Z,0
2016-10-04T01:11:01.185Z,0
2016-10-04T01:12:01.486Z,0
2016-10-04T01:13:01.152Z,0
2016-10-04T01:14:01.144Z,0
2016-10-04T01:15:01.128Z,0
2016-10-04T01:16:01.166Z,0
2016-10-04T01:17:01.156Z,0
2016-10-04T01:18:01.089Z,0
2016-10-04T01:19:01.071Z,0
2016-10-04T01:20:01.066Z,0
2016-10-04T01:21:01.365Z,0
2016-10-04T01:22:01.084Z,0
2016-10-04T01:23:01.338Z,0
2016-10-04T01:24:01.016Z,0
2016-10-04T01:25:01.006Z,0
2016-10-04T01:26:00.982Z,0
2016-10-04T01:27:01.286Z,0
2016-10-04T01:28:01.009Z,0
2016-10-04T01:29:00.946Z,0
2016-10-04T01:30:00.928Z,0
2016-10-04T01:31:00.913Z,0
2016-10-04T01:32:00.905Z,0
2016-10-04T01:33:00.898Z,0
2016-10-04T01:34:01.254Z,0
2016-10-04T01:35:00.864Z,0
2016-10-04T01:36:01.166Z,0
2016-10-04T01:37:00.833Z,0
2016-10-04T01:38:01.190Z,0
2016-10-04T01:39:00.814Z,0
2016-10-04T01:40:00.794Z,0
2016-10-04T01:41:00.784Z,0
2016-10-04T01:42:00.772Z,0
2016-10-04T01:43:01.067Z,0
2016-10-04T01:44:00.745Z,0
2016-10-04T01:45:00.731Z,0
2016-10-04T01:46:00.724Z,0
2016-10-04T01:47:00.707Z,0
2016-10-04T01:48:00.687Z,0
2016-10-04T01:49:00.994Z,0
2016-10-04T01:50:00.674Z,0
2016-10-04T01:51:00.648Z,0
2016-10-04T01:52:00.641Z,0
2016-10-04T01:53:00.637Z,0
2016-10-04T01:54:00.935Z,0
2016-10-04T01:55:00.606Z,0
2016-10-04T01:56:00.583Z,0
2016-10-04T01:57:00.902Z,0
2016-10-04T01:58:00.570Z,0
2016-10-04T01:59:00.607Z,0
2016-10-04T02:00:00.538Z,0
2016-10-04T02:01:00.573Z,0
2016-10-04T02:02:00.829Z,0
2016-10-04T02:03:00.497Z,0
2016-10-04T02:04:00.496Z,0
2016-10-04T02:05:00.783Z,0
2016-10-04T02:06:00.456Z,0
2016-10-04T02:07:00.440Z,0
2016-10-04T02:08:00.430Z,0
2016-10-04T02:09:00.743Z,0
2016-10-04T02:10:00.712Z,0
2016-10-04T02:11:00.391Z,0
2016-10-04T02:12:00.378Z,0
2016-10-04T02:13:00.372Z,0
2016-10-04T02:14:00.671Z,0
2016-10-04T02:15:00.338Z,0
2016-10-04T02:16:00.367Z,0
2016-10-04T02:17:00.320Z,0
2016-10-04T02:18:00.297Z,0
2016-10-04T02:19:00.383Z,0
2016-10-04T02:20:00.284Z,0
2016-10-04T02:21:00.256Z,0
2016-10-04T02:22:00.255Z,0
2016-10-04T02:23:00.237Z,0
2016-10-04T02:24:00.220Z,0
2016-10-04T02:25:00.836Z,0
2016-10-04T02:26:00.195Z,0
2016-10-04T02:27:00.497Z,0
2016-10-04T02:28:00.494Z,0
2016-10-04T02:29:00.153Z,0
2016-10-04T02:30:00.146Z,0
2016-10-04T02:31:00.150Z,0
2016-10-04T02:32:00.114Z,0
2016-10-04T02:33:00.105Z,0
2016-10-04T02:34:00.429Z,0
2016-10-04T02:35:00.115Z,0
2016-10-04T02:36:00.074Z,0
2016-10-04T02:37:00.053Z,0
2016-10-04T02:38:00.041Z,0
2016-10-04T02:39:00.027Z,0
2016-10-04T02:40:00.013Z,0
2016-10-04T02:41:00.002Z,0
2016-10-04T02:42:00.314Z,0
2016-10-04T02:42:59.973Z,0
2016-10-04T02:43:59.964Z,0
2016-10-04T02:44:59.950Z,0
2016-10-04T02:45:59.935Z,0
2016-10-04T02:47:00.238Z,0
2016-10-04T02:48:00.224Z,0
2016-10-04T02:49:00.213Z,0
2016-10-04T02:50:00.203Z,0
2016-10-04T02:50:59.871Z,0
2016-10-04T02:51:59.858Z,0
2016-10-04T02:52:59.908Z,0
2016-10-04T02:54:00.145Z,0
2016-10-04T02:55:00.176Z,0
2016-10-04T02:56:00.218Z,0
2016-10-04T02:56:59.795Z,0
2016-10-04T02:58:00.408Z,0
2016-10-04T02:58:59.764Z,0
2016-10-04T02:59:59.759Z,0
2016-10-04T03:00:59.744Z,0
2016-10-04T03:02:00.398Z,0
2016-10-04T03:03:00.049Z,0
2016-10-04T03:04:00.028Z,0
2016-10-04T03:05:00.007Z,0
2016-10-04T03:05:59.677Z,0
2016-10-04T03:06:59.662Z,0
2016-10-04T03:07:59.657Z,0
2016-10-04T03:08:59.642Z,0
2016-10-04T03:09:59.676Z,0
2016-10-04T03:10:59.617Z,0
2016-10-04T03:11:59.601Z,0
2016-10-04T03:12:59.934Z,0
2016-10-04T03:13:59.892Z,0
2016-10-04T03:14:59.880Z,0
2016-10-04T03:15:59.552Z,0
2016-10-04T03:16:59.533Z,0
2016-10-04T03:17:59.528Z,0
2016-10-04T03:18:59.827Z,0
2016-10-04T03:19:59.499Z,0
2016-10-04T03:20:59.800Z,0
2016-10-04T03:21:59.473Z,0
2016-10-04T03:22:59.474Z,0
2016-10-04T03:23:59.452Z,0
2016-10-04T03:24:59.484Z,0
2016-10-04T03:25:59.738Z,0
2016-10-04T03:26:59.410Z,0
2016-10-04T03:27:59.399Z,0
2016-10-04T03:28:59.387Z,0
2016-10-04T03:29:59.366Z,0
2016-10-04T03:30:59.367Z,0
2016-10-04T03:31:59.681Z,0
2016-10-04T03:32:59.344Z,0
2016-10-04T03:33:59.321Z,0
2016-10-04T03:34:59.618Z,0
2016-10-04T03:35:59.613Z,0
2016-10-04T03:36:59.597Z,0
2016-10-04T03:37:59.287Z,0
2016-10-04T03:38:59.574Z,0
2016-10-04T03:39:59.554Z,0
2016-10-04T03:40:59.549Z,0
2016-10-04T03:41:59.557Z,0
2016-10-04T03:42:59.838Z,0
2016-10-04T03:43:59.242Z,0
2016-10-04T03:44:59.179Z,0
2016-10-04T03:45:59.171Z,0
2016-10-04T03:46:59.790Z,0
2016-10-04T03:47:59.465Z,0
2016-10-04T03:48:59.497Z,0
2016-10-04T03:49:59.480Z,0
2016-10-04T03:50:59.427Z,0
2016-10-04T03:51:59.103Z,0
2016-10-04T03:52:59.914Z,0
2016-10-04T03:54:00.033Z,0
2016-10-04T03:54:59.060Z,0
2016-10-04T03:55:59.050Z,0
2016-10-04T03:56:59.352Z,0
2016-10-04T03:57:59.336Z,0
2016-10-04T03:58:59.010Z,0
2016-10-04T03:59:59.306Z,0
2016-10-04T04:00:58.981Z,0
2016-10-04T04:01:59.290Z,0
2016-10-04T04:02:58.955Z,0
2016-10-04T04:03:58.952Z,0
2016-10-04T04:04:58.936Z,0
2016-10-04T04:05:59.237Z,0
2016-10-04T04:06:59.225Z,0
2016-10-04T04:07:58.896Z,0
2016-10-04T04:08:59.202Z,0
2016-10-04T04:09:59.187Z,0
2016-10-04T04:10:59.173Z,0
2016-10-04T04:11:58.853Z,0
2016-10-04T04:12:59.157Z,0
2016-10-04T04:13:59.138Z,0
2016-10-04T04:14:59.442Z,0
2016-10-04T04:15:58.816Z,0
2016-10-04T04:16:59.724Z,0
2016-10-04T04:17:59.087Z,0
2016-10-04T04:18:59.071Z,0
2016-10-04T04:19:58.759Z,0
2016-10-04T04:20:58.740Z,0
2016-10-04T04:21:58.723Z,0
2016-10-04T04:22:58.710Z,0
2016-10-04T04:23:58.699Z,0
2016-10-04T04:24:58.691Z,0
2016-10-04T04:25:58.677Z,0
2016-10-04T04:26:58.978Z,0
2016-10-04T04:27:58.652Z,0
2016-10-04T04:28:58.951Z,0
2016-10-04T04:29:58.628Z,0
2016-10-04T04:30:58.923Z,0
2016-10-04T04:31:58.603Z,0
2016-10-04T04:32:58.582Z,0
2016-10-04T04:33:58.891Z,0
2016-10-04T04:34:58.557Z,0
2016-10-04T04:35:58.548Z,0
2016-10-04T04:36:58.557Z,0
2016-10-04T04:37:58.844Z,0
2016-10-04T04:38:58.509Z,0
2016-10-04T04:39:58.501Z,0
2016-10-04T04:40:58.480Z,0
2016-10-04T04:41:58.479Z,0
2016-10-04T04:42:59.094Z,0
2016-10-04T04:43:58.452Z,0
2016-10-04T04:44:58.435Z,0
2016-10-04T04:45:58.797Z,0
2016-10-04T04:46:58.722Z,0
2016-10-04T04:47:58.389Z,0
2016-10-04T04:48:58.705Z,0
2016-10-04T04:49:58.381Z,0
2016-10-04T04:50:58.358Z,0
2016-10-04T04:51:58.350Z,0
2016-10-04T04:52:58.332Z,0
2016-10-04T04:53:58.322Z,0
2016-10-04T04:54:58.987Z,0
2016-10-04T04:55:58.319Z,0
2016-10-04T04:56:58.286Z,0
2016-10-04T04:57:58.278Z,0
2016-10-04T04:58:58.259Z,0
2016-10-04T04:59:58.250Z,0
2016-10-04T05:00:58.237Z,0
2016-10-04T05:01:58.543Z,0
2016-10-04T05:02:58.545Z,0
2016-10-04T05:03:58.202Z,0
2016-10-04T05:04:58.187Z,0
2016-10-04T05:05:58.174Z,0
2016-10-04T05:06:58.789Z,0
2016-10-04T05:07:58.153Z,0
2016-10-04T05:08:58.449Z,0
2016-10-04T05:09:58.434Z,0
2016-10-04T05:10:58.110Z,0
2016-10-04T05:11:58.098Z,0
2016-10-04T05:12:58.085Z,4
2016-10-04T05:13:58.392Z,4
2016-10-04T05:14:58.058Z,0
2016-10-04T05:15:58.052Z,4
2016-10-04T05:16:58.354Z,8
2016-10-04T05:17:58.024Z,4
2016-10-04T05:18:58.015Z,4
2016-10-04T05:19:58.307Z,12
2016-10-04T05:20:58.306Z,12
2016-10-04T05:21:57.987Z,12
2016-10-04T05:22:58.278Z,16
2016-10-04T05:23:57.948Z,16
2016-10-04T05:24:57.937Z,24
2016-10-04T05:25:57.937Z,28
2016-10-04T05:26:57.915Z,28
2016-10-04T05:27:58.217Z,36
2016-10-04T05:28:57.890Z,44
2016-10-04T05:29:58.194Z,52
2016-10-04T05:30:57.869Z,56
2016-10-04T05:31:57.851Z,64
2016-10-04T05:32:58.148Z,72
2016-10-04T05:33:57.824Z,72
2016-10-04T05:34:58.123Z,80
2016-10-04T05:35:57.809Z,96
2016-10-04T05:36:57.793Z,112
2016-10-04T05:37:57.773Z,132
2016-10-04T05:38:57.774Z,148
2016-10-04T05:39:57.751Z,160
2016-10-04T05:40:57.734Z,172
2016-10-04T05:41:57.735Z,176
2016-10-04T05:42:57.719Z,176
2016-10-04T05:43:57.709Z,172
2016-10-04T05:44:57.691Z,188
2016-10-04T05:45:57.990Z,200
2016-10-04T05:46:57.981Z,192
2016-10-04T05:47:57.652Z,208
2016-10-04T05:48:57.635Z,204
2016-10-04T05:49:57.632Z,212
2016-10-04T05:50:57.932Z,228
2016-10-04T05:51:57.609Z,244
2016-10-04T05:52:58.213Z,264
2016-10-04T05:53:58.203Z,272
2016-10-04T05:54:57.564Z,312
2016-10-04T05:55:57.869Z,344
2016-10-04T05:56:57.587Z,384
2016-10-04T05:57:57.530Z,408
2016-10-04T05:58:57.821Z,416
2016-10-04T05:59:57.509Z,428
2016-10-04T06:00:57.808Z,432
2016-10-04T06:01:57.529Z,460
2016-10-04T06:02:57.788Z,476
2016-10-04T06:03:57.456Z,500
2016-10-04T06:04:57.439Z,516
2016-10-04T06:05:57.429Z,524
2016-10-04T06:06:57.407Z,564
2016-10-04T06:07:57.408Z,580
2016-10-04T06:08:57.389Z,660
2016-10-04T06:09:57.377Z,724
2016-10-04T06:10:57.997Z,796
2016-10-04T06:11:57.720Z,904
2016-10-04T06:12:57.654Z,992
2016-10-04T06:13:57.649Z,1032
2016-10-04T06:14:57.318Z,1044
2016-10-04T06:15:57.615Z,1104
2016-10-04T06:16:57.605Z,1124
2016-10-04T06:17:57.589Z,1112
2016-10-04T06:18:57.265Z,1136
2016-10-04T06:19:57.256Z,1052
2016-10-04T06:20:57.241Z,928
2016-10-04T06:21:57.603Z,784
2016-10-04T06:22:57.213Z,684
2016-10-04T06:23:57.204Z,692
2016-10-04T06:24:57.193Z,780
2016-10-04T06:25:57.177Z,936
2016-10-04T06:26:57.483Z,1024
2016-10-04T06:27:57.154Z,1084
2016-10-04T06:28:57.146Z,1084
2016-10-04T06:29:57.136Z,1068
2016-10-04T06:30:57.436Z,1072
2016-10-04T06:31:57.423Z,1064
2016-10-04T06:32:57.093Z,1204
2016-10-04T06:33:57.397Z,1388
2016-10-04T06:34:57.076Z,1468
2016-10-04T06:35:57.061Z,1524
2016-10-04T06:36:57.044Z,1588
2016-10-04T06:37:57.352Z,1536
2016-10-04T06:38:57.341Z,1632
2016-10-04T06:39:57.319Z,1576
2016-10-04T06:40:57.001Z,1460
2016-10-04T06:41:56.992Z,1456
2016-10-04T06:42:57.286Z,1452
2016-10-04T06:43:56.968Z,1456
2016-10-04T06:44:56.970Z,1396
2016-10-04T06:45:57.269Z,1400
2016-10-04T06:46:57.568Z,1396
2016-10-04T06:47:56.913Z,1388
2016-10-04T06:48:56.915Z,1396
2016-10-04T06:49:57.228Z,1728
2016-10-04T06:50:57.196Z,1912
2016-10-04T06:51:57.553Z,2104
2016-10-04T06:52:56.863Z,1968
2016-10-04T06:53:56.847Z,1764
2016-10-04T06:54:57.146Z,1760
2016-10-04T06:55:56.830Z,1652
2016-10-04T06:56:57.013Z,2164
2016-10-04T06:57:56.798Z,2520
2016-10-04T06:58:57.097Z,2668
2016-10-04T06:59:56.767Z,2792
2016-10-04T07:00:56.770Z,2924
2016-10-04T07:01:56.754Z,2956
2016-10-04T07:02:56.733Z,3216
2016-10-04T07:03:56.726Z,3252
2016-10-04T07:04:56.709Z,3296
2016-10-04T07:05:57.015Z,3232
2016-10-04T07:06:57.009Z,3172
2016-10-04T07:07:56.684Z,3100
2016-10-04T07:08:56.687Z,2872
2016-10-04T07:09:56.650Z,2760
2016-10-04T07:10:56.641Z,2748
2016-10-04T07:11:56.948Z,2900
2016-10-04T07:12:56.940Z,3164
2016-10-04T07:13:56.609Z,3120
2016-10-04T07:14:56.600Z,3156
2016-10-04T07:15:56.588Z,2788
2016-10-04T07:16:56.892Z,2844
2016-10-04T07:17:56.874Z,2852
2016-10-04T07:18:56.570Z,3152
2016-10-04T07:19:56.539Z,3008
2016-10-04T07:20:56.837Z,3044
2016-10-04T07:21:56.833Z,3312
2016-10-04T07:22:56.509Z,3008
2016-10-04T07:23:56.503Z,2932
2016-10-04T07:24:56.483Z,3032
2016-10-04T07:25:56.470Z,3152
2016-10-04T07:26:56.458Z,2992
2016-10-04T07:27:56.446Z,2720
2016-10-04T07:28:56.441Z,2492
2016-10-04T07:29:56.439Z,2628
2016-10-04T07:30:56.720Z,2664
2016-10-04T07:31:56.711Z,2560
2016-10-04T07:32:56.713Z,2472
2016-10-04T07:33:56.379Z,2460
2016-10-04T07:34:56.379Z,2636
2016-10-04T07:35:56.361Z,2608
2016-10-04T07:36:56.659Z,2624
2016-10-04T07:37:56.756Z,2908
2016-10-04T07:38:56.317Z,2728
2016-10-04T07:39:56.323Z,2704
2016-10-04T07:40:56.298Z,2776
2016-10-04T07:41:56.282Z,3168
2016-10-04T07:42:56.587Z,3284
2016-10-04T07:43:56.267Z,3048
2016-10-04T07:44:56.257Z,2940
2016-10-04T07:45:56.243Z,2596
2016-10-04T07:46:56.224Z,2480
2016-10-04T07:47:56.535Z,2448
2016-10-04T07:48:56.527Z,2544
2016-10-04T07:49:56.199Z,2968
2016-10-04T07:50:56.185Z,3096
2016-10-04T07:51:56.169Z,3128
2016-10-04T07:52:56.167Z,3236
2016-10-04T07:53:56.156Z,3060
2016-10-04T07:54:56.449Z,2852
2016-10-04T07:55:56.128Z,3188
2016-10-04T07:56:56.117Z,3364
2016-10-04T07:57:56.106Z,3592
2016-10-04T07:58:56.095Z,3712
2016-10-04T07:59:56.397Z,5668
2016-10-04T08:00:56.393Z,4108
2016-10-04T08:01:56.068Z,2840
2016-10-04T08:02:56.416Z,2696
2016-10-04T08:03:56.356Z,2756
2016-10-04T08:04:56.019Z,2956
2016-10-04T08:05:56.015Z,2872
2016-10-04T08:06:56.006Z,3124
2016-10-04T08:07:56.357Z,2932
2016-10-04T08:08:55.979Z,2844
2016-10-04T08:09:55.970Z,2788
2016-10-04T08:10:55.951Z,3004
2016-10-04T08:11:55.947Z,4428
2016-10-04T08:12:55.936Z,5152
2016-10-04T08:13:56.237Z,4588
2016-10-04T08:14:55.931Z,3532
2016-10-04T08:15:55.902Z,2644
2016-10-04T08:16:55.890Z,4424
2016-10-04T08:17:55.884Z,3040
2016-10-04T08:18:56.231Z,3768
2016-10-04T08:19:56.172Z,2904
2016-10-04T08:20:55.848Z,2704
2016-10-04T08:21:55.836Z,3484
2016-10-04T08:22:56.140Z,3820
2016-10-04T08:23:56.140Z,3848
2016-10-04T08:24:55.803Z,2960
2016-10-04T08:25:55.798Z,2932
2016-10-04T08:26:55.777Z,3348
2016-10-04T08:27:55.767Z,3332
2016-10-04T08:28:55.773Z,3840
2016-10-04T08:29:55.747Z,5612
2016-10-04T08:30:55.736Z,3808
2016-10-04T08:31:55.741Z,3756
2016-10-04T08:32:55.714Z,3372
2016-10-04T08:33:55.749Z,4440
2016-10-04T08:34:55.695Z,6216
2016-10-04T08:35:55.676Z,7024
2016-10-04T08:36:55.671Z,8644
2016-10-04T08:37:55.657Z,7464
2016-10-04T08:38:55.647Z,7528
2016-10-04T08:39:55.949Z,7284
2016-10-04T08:40:55.620Z,6200
2016-10-04T08:41:55.608Z,6588
2016-10-04T08:42:55.595Z,6788
2016-10-04T08:43:55.596Z,6512
2016-10-04T08:44:55.895Z,6804
2016-10-04T08:45:55.562Z,6936
2016-10-04T08:46:55.881Z,6784
2016-10-04T08:47:55.560Z,7808
2016-10-04T08:48:55.576Z,7900
2016-10-04T08:49:55.857Z,9048
2016-10-04T08:50:56.471Z,9928
2016-10-04T08:51:55.509Z,10464
2016-10-04T08:52:56.125Z,10532
2016-10-04T08:53:55.489Z,8696
2016-10-04T08:54:55.480Z,7796
2016-10-04T08:55:55.774Z,7276
2016-10-04T08:56:55.650Z,5844
2016-10-04T08:57:55.443Z,6432
2016-10-04T08:58:55.430Z,4764
2016-10-04T08:59:55.428Z,4912
2016-10-04T09:00:55.410Z,5492
2016-10-04T09:01:55.399Z,6352
2016-10-04T09:02:55.391Z,6936
2016-10-04T09:03:55.693Z,8020
2016-10-04T09:04:55.365Z,9428
2016-10-04T09:05:55.358Z,7168
2016-10-04T09:06:55.661Z,6444
2016-10-04T09:07:56.012Z,7392
2016-10-04T09:08:55.664Z,7104
2016-10-04T09:09:55.322Z,7728
2016-10-04T09:10:55.625Z,7148
2016-10-04T09:11:55.301Z,5616
2016-10-04T09:12:55.601Z,6472
2016-10-04T09:13:55.341Z,5980
2016-10-04T09:14:56.384Z,6400
2016-10-04T09:15:55.326Z,7628
2016-10-04T09:16:55.584Z,6872
2016-10-04T09:17:55.259Z,7264
2016-10-04T09:18:55.544Z,5820
2016-10-04T09:19:55.219Z,7716
2016-10-04T09:20:55.522Z,9092
2016-10-04T09:21:55.522Z,7448
2016-10-04T09:22:55.184Z,8276
2016-10-04T09:23:55.506Z,7892
2016-10-04T09:24:55.825Z,7152
2016-10-04T09:25:55.505Z,6328
2016-10-04T09:26:55.469Z,6136
2016-10-04T09:27:55.453Z,7692
2016-10-04T09:28:55.447Z,8804
2016-10-04T09:29:55.128Z,9324
2016-10-04T09:30:55.422Z,10460
2016-10-04T09:31:55.412Z,10316
2016-10-04T09:32:55.097Z,11680
2016-10-04T09:33:55.438Z,12628
2016-10-04T09:34:55.388Z,9744
2016-10-04T09:35:55.054Z,7084
2016-10-04T09:36:55.057Z,8908
2016-10-04T09:37:55.043Z,9608
2016-10-04T09:38:55.349Z,9056
2016-10-04T09:39:55.661Z,8076
2016-10-04T09:40:55.017Z,7052
2016-10-04T09:41:55.012Z,6652
2016-10-04T09:42:54.997Z,6888
2016-10-04T09:43:54.984Z,5888
2016-10-04T09:44:54.978Z,5200
2016-10-04T09:45:55.591Z,5868
2016-10-04T09:46:54.959Z,4784
2016-10-04T09:47:55.270Z,4992
2016-10-04T09:48:54.951Z,8344
2016-10-04T09:49:54.936Z,10220
2016-10-04T09:50:55.231Z,9692
2016-10-04T09:51:54.912Z,10256
2016-10-04T09:52:54.910Z,11296
2016-10-04T09:53:55.204Z,9864
2016-10-04T09:54:55.326Z,10752
2016-10-04T09:55:54.871Z,11936
2016-10-04T09:56:54.864Z,10040
2016-10-04T09:57:54.851Z,10980
2016-10-04T09:58:55.190Z,10100
2016-10-04T09:59:54.844Z,10328
2016-10-04T10:00:54.833Z,12388
2016-10-04T10:01:55.139Z,11776
2016-10-04T10:02:55.171Z,13504
2016-10-04T10:03:54.815Z,14816
2016-10-04T10:04:55.111Z,13340
2016-10-04T10:05:55.100Z,8732
2016-10-04T10:06:54.776Z,5980
2016-10-04T10:07:54.767Z,5404
2016-10-04T10:08:55.071Z,5708
2016-10-04T10:09:55.065Z,5616
2016-10-04T10:10:55.101Z,4864
2016-10-04T10:11:54.734Z,4988
2016-10-04T10:12:54.722Z,5504
2016-10-04T10:13:54.712Z,6368
2016-10-04T10:14:54.701Z,8588
2016-10-04T10:15:54.694Z,10932
2016-10-04T10:16:54.997Z,10728
2016-10-04T10:17:55.010Z,10248
2016-10-04T10:18:55.308Z,9420
2016-10-04T10:19:54.659Z,7492
2016-10-04T10:20:55.289Z,8044
2016-10-04T10:21:54.644Z,8808
2016-10-04T10:22:54.635Z,8144
2016-10-04T10:23:54.620Z,8308
2016-10-04T10:24:54.939Z,7028
2016-10-04T10:25:54.606Z,6336
2016-10-04T10:26:54.595Z,5936
2016-10-04T10:27:54.910Z,5328
2016-10-04T10:28:54.573Z,6196
2016-10-04T10:29:54.884Z,7484
2016-10-04T10:30:54.556Z,10152
2016-10-04T10:31:54.554Z,11384
2016-10-04T10:32:54.543Z,11852
2016-10-04T10:33:54.848Z,12876
2016-10-04T10:34:54.524Z,12756
2016-10-04T10:35:54.824Z,11228
2016-10-04T10:36:54.824Z,10296
2016-10-04T10:37:54.502Z,12492
2016-10-04T10:38:54.800Z,14048
2016-10-04T10:39:54.484Z,11996
2016-10-04T10:40:54.476Z,8788
2016-10-04T10:41:54.467Z,7056
2016-10-04T10:42:54.451Z,6360
2016-10-04T10:43:54.767Z,6412
2016-10-04T10:44:54.439Z,6452
2016-10-04T10:45:54.429Z,7328
2016-10-04T10:46:54.460Z,7008
2016-10-04T10:47:54.731Z,7348
2016-10-04T10:48:54.409Z,6488
2016-10-04T10:49:54.409Z,5640
2016-10-04T10:50:54.696Z,6244
2016-10-04T10:51:54.698Z,6772
2016-10-04T10:52:54.688Z,7160
2016-10-04T10:53:54.357Z,6676
2016-10-04T10:54:54.668Z,9588
2016-10-04T10:55:54.356Z,10044
2016-10-04T10:56:54.852Z,10640
2016-10-04T10:57:54.642Z,8752
2016-10-04T10:58:54.312Z,7588
2016-10-04T10:59:54.313Z,6304
2016-10-04T11:00:54.609Z,6952
2016-10-04T11:01:54.605Z,7296
2016-10-04T11:02:54.608Z,4576
2016-10-04T11:03:54.277Z,4596
2016-10-04T11:04:54.263Z,4568
2016-10-04T11:05:54.887Z,5892
2016-10-04T11:06:54.559Z,6300
2016-10-04T11:07:54.231Z,7336
2016-10-04T11:08:54.543Z,12624
2016-10-04T11:09:54.214Z,10128
2016-10-04T11:10:54.219Z,10776
2016-10-04T11:11:54.208Z,13108
2016-10-04T11:12:54.191Z,12828
2016-10-04T11:13:54.188Z,13380
2016-10-04T11:14:54.180Z,13752
2016-10-04T11:15:54.485Z,16228
2016-10-04T11:16:54.473Z,15672
2016-10-04T11:17:54.158Z,15128
2016-10-04T11:18:54.145Z,13896
2016-10-04T11:19:54.131Z,12692
2016-10-04T11:20:54.131Z,11456
2016-10-04T11:21:54.436Z,10492
2016-10-04T11:22:54.449Z,6576
2016-10-04T11:23:54.422Z,5828
2016-10-04T11:24:54.100Z,5604
2016-10-04T11:25:54.090Z,5632
2016-10-04T11:26:54.079Z,6292
2016-10-04T11:27:54.709Z,10612
2016-10-04T11:28:54.388Z,7232
2016-10-04T11:29:54.065Z,7564
2016-10-04T11:30:54.057Z,7380
2016-10-04T11:31:54.045Z,7184
2016-10-04T11:32:54.047Z,7220
2016-10-04T11:33:54.031Z,6952
2016-10-04T11:34:54.027Z,6892
2016-10-04T11:35:54.321Z,6572
2016-10-04T11:36:54.005Z,6100
2016-10-04T11:37:53.998Z,6240
2016-10-04T11:38:54.305Z,6776
2016-10-04T11:39:54.298Z,7144
2016-10-04T11:40:54.290Z,7328
2016-10-04T11:41:53.971Z,7556
2016-10-04T11:42:54.270Z,7208
2016-10-04T11:43:53.945Z,8104
2016-10-04T11:44:53.958Z,8236
2016-10-04T11:45:53.932Z,7768
2016-10-04T11:46:53.936Z,7292
2016-10-04T11:47:54.250Z,7184
2016-10-04T11:48:53.909Z,7176
2016-10-04T11:49:54.228Z,7844
2016-10-04T11:50:54.213Z,42432
2016-10-04T11:51:54.204Z,52096
2016-10-04T11:52:54.200Z,53856
2016-10-04T11:53:53.874Z,60384
2016-10-04T11:54:53.863Z,64960
2016-10-04T11:55:54.181Z,70272
2016-10-04T11:56:53.874Z,74560
2016-10-04T11:57:53.843Z,76800
2016-10-04T11:58:53.837Z,77088
2016-10-04T11:59:54.151Z,76480
2016-10-04T12:00:53.825Z,74080
2016-10-04T12:01:54.139Z,68960
2016-10-04T12:02:53.823Z,63456
2016-10-04T12:03:53.823Z,61696
2016-10-04T12:04:54.441Z,61248
2016-10-04T12:05:53.803Z,61536
2016-10-04T12:06:54.119Z,62656
2016-10-04T12:07:54.429Z,61152
2016-10-04T12:08:54.117Z,60736
2016-10-04T12:09:53.796Z,58912
2016-10-04T12:10:53.788Z,58080
2016-10-04T12:11:53.814Z,57568
2016-10-04T12:12:53.786Z,56128
2016-10-04T12:13:54.104Z,55616
2016-10-04T12:14:53.789Z,56096
2016-10-04T12:15:53.779Z,57216
2016-10-04T12:16:53.784Z,59904
2016-10-04T12:17:54.102Z,62752
2016-10-04T12:18:53.779Z,65856
2016-10-04T12:19:54.104Z,67264
2016-10-04T12:20:53.784Z,68480
2016-10-04T12:21:53.787Z,69056
2016-10-04T12:22:53.799Z,68704
2016-10-04T12:23:53.774Z,68512
2016-10-04T12:24:53.795Z,69216
2016-10-04T12:25:53.789Z,70336
2016-10-04T12:26:54.095Z,72992
2016-10-04T12:27:54.108Z,73920
2016-10-04T12:28:53.784Z,76768
2016-10-04T12:29:53.792Z,17824
2016-10-04T12:30:53.782Z,6276
2016-10-04T12:31:54.439Z,9292
2016-10-04T12:32:54.102Z,72224
2016-10-04T12:33:53.776Z,71008
2016-10-04T12:34:53.800Z,69472
2016-10-04T12:35:53.787Z,8280
2016-10-04T12:36:54.093Z,8920
2016-10-04T12:37:54.095Z,30464
2016-10-04T12:38:53.780Z,13916
2016-10-04T12:39:53.784Z,11956
2016-10-04T12:40:53.789Z,12360
2016-10-04T12:41:54.086Z,12076
2016-10-04T12:42:53.790Z,63840
2016-10-04T12:43:53.771Z,7324
2016-10-04T12:44:53.807Z,6028
2016-10-04T12:45:54.107Z,5344
2016-10-04T12:46:53.788Z,5180
2016-10-04T12:47:53.788Z,5896
2016-10-04T12:48:53.768Z,8636
2016-10-04T12:49:53.783Z,17376
2016-10-04T12:50:53.759Z,6684
2016-10-04T12:51:53.785Z,60800
2016-10-04T12:52:54.390Z,59680
2016-10-04T12:53:53.758Z,59840
2016-10-04T12:54:53.756Z,60000
2016-10-04T12:55:53.771Z,59744
2016-10-04T12:56:54.265Z,59136
2016-10-04T12:57:53.759Z,60224
2016-10-04T12:58:53.747Z,62496
2016-10-04T12:59:53.741Z,63584
2016-10-04T13:00:53.736Z,64192
2016-10-04T13:01:53.730Z,62016
2016-10-04T13:02:54.042Z,59360
2016-10-04T13:03:53.729Z,59680
2016-10-04T13:04:54.042Z,37472
2016-10-04T13:05:53.727Z,56416
2016-10-04T13:06:53.725Z,8452
2016-10-04T13:07:54.043Z,11576
2016-10-04T13:08:53.725Z,14020
2016-10-04T13:09:54.030Z,10036
2016-10-04T13:10:54.032Z,7368
2016-10-04T13:11:53.734Z,59840
2016-10-04T13:12:54.023Z,57856
2016-10-04T13:13:54.027Z,58816
2016-10-04T13:14:53.706Z,59776
2016-10-04T13:15:54.082Z,60928
2016-10-04T13:16:53.707Z,61216
2016-10-04T13:17:53.701Z,59904
2016-10-04T13:18:53.706Z,59168
2016-10-04T13:19:53.698Z,58816
2016-10-04T13:20:53.704Z,57664
2016-10-04T13:21:54.020Z,57984
2016-10-04T13:22:53.693Z,57568
2016-10-04T13:23:53.698Z,56384
2016-10-04T13:24:54.017Z,55712
2016-10-04T13:25:53.691Z,54976
2016-10-04T13:26:53.685Z,54592
2016-10-04T13:27:53.692Z,52544
2016-10-04T13:28:53.692Z,51264
2016-10-04T13:29:53.692Z,53312
2016-10-04T13:30:54.020Z,52512
2016-10-04T13:31:53.692Z,13268
2016-10-04T13:32:53.696Z,44608
2016-10-04T13:33:54.002Z,58432
2016-10-04T13:34:54.012Z,8116
2016-10-04T13:35:54.017Z,7964
2016-10-04T13:36:53.685Z,45120
2016-10-04T13:37:53.688Z,48480
2016-10-04T13:38:53.688Z,47328
2016-10-04T13:39:53.683Z,48224
2016-10-04T13:40:53.681Z,49856
2016-10-04T13:41:53.687Z,52032
2016-10-04T13:42:53.682Z,52896
2016-10-04T13:43:53.687Z,52864
2016-10-04T13:44:53.683Z,52384
2016-10-04T13:45:53.686Z,53472
2016-10-04T13:46:53.695Z,47584